Time;durP1;ratioP1;P1;durP2;ratioP2;P2;SDS_P1;SDS_P2;PMS_P1;PMS_P2;Temp;Humidity;BMP_temperature;BMP_pressure;BME280_temperature;BME280_humidity;BME280_pressure;Samples;Min_cycle;Max_cycle;Signal;HPM_P1;HPM_P2
2022/09/10 00:01:26;;;;;;;19.57;18.67;;;;;;;;;;5093498;28;20443;-83
2022/09/10 00:03:55;;;;;;;20.73;19.53;;;;;;;;;;5093817;28;20413;-84
2022/09/10 00:06:24;;;;;;;20.30;19.07;;;;;;;;;;5094309;28;20470;-84
2022/09/10 00:08:55;;;;;;;19.50;18.60;;;;;;;;;;5094075;28;20434;-84
2022/09/10 00:11:22;;;;;;;20.97;19.57;;;;;;;;;;5093370;28;20954;-84
2022/09/10 00:13:49;;;;;;;19.40;18.40;;;;;;;;;;5093732;28;20426;-84
2022/09/10 00:16:18;;;;;;;20.40;19.30;;;;;;;;;;5093784;28;20454;-84
2022/09/10 00:18:47;;;;;;;21.50;20.20;;;;;;;;;;5093622;28;20456;-84
2022/09/10 00:21:16;;;;;;;20.97;19.67;;;;;;;;;;5093257;28;20487;-84
2022/09/10 00:23:44;;;;;;;20.20;19.07;;;;;;;;;;5093784;28;20562;-84
2022/09/10 00:26:15;;;;;;;20.27;19.27;;;;;;;;;;5093850;28;20448;-84
2022/09/10 00:28:43;;;;;;;20.20;19.10;;;;;;;;;;5093442;28;20841;-84
2022/09/10 00:31:12;;;;;;;20.43;19.33;;;;;;;;;;5093257;28;20418;-84
2022/09/10 00:33:40;;;;;;;20.80;19.17;;;;;;;;;;5093579;28;20448;-83
2022/09/10 00:36:14;;;;;;;20.50;19.20;;;;;;;;;;5096468;28;20482;-84
2022/09/10 00:38:42;;;;;;;20.73;19.43;;;;;;;;;;5097368;28;20470;-84
2022/09/10 00:41:10;;;;;;;20.37;19.17;;;;;;;;;;5096723;28;21012;-84
2022/09/10 00:43:49;;;;;;;20.77;19.77;;;;;;;;;;5097169;28;20523;-84
2022/09/10 00:46:21;;;;;;;20.47;19.27;;;;;;;;;;5096750;28;20936;-84
2022/09/10 00:48:48;;;;;;;20.50;19.40;;;;;;;;;;5096630;28;20782;-84
2022/09/10 00:51:15;;;;;;;20.03;19.03;;;;;;;;;;5096317;28;20419;-84
2022/09/10 00:53:43;;;;;;;20.97;19.67;;;;;;;;;;5097479;28;20451;-83
2022/09/10 00:56:11;;;;;;;20.80;19.50;;;;;;;;;;5096857;28;20999;-83
2022/09/10 00:58:38;;;;;;;20.87;19.63;;;;;;;;;;5096995;28;20447;-83
2022/09/10 01:01:07;;;;;;;20.80;19.60;;;;;;;;;;5096059;28;20473;-83
2022/09/10 01:03:35;;;;;;;20.10;19.00;;;;;;;;;;5097685;28;20444;-84
2022/09/10 01:06:03;;;;;;;20.80;19.50;;;;;;;;;;5097174;28;20450;-84
2022/09/10 01:08:31;;;;;;;21.00;19.30;;;;;;;;;;5097946;28;20449;-84
2022/09/10 01:11:03;;;;;;;22.40;20.90;;;;;;;;;;5096843;28;20817;-85
2022/09/10 01:13:37;;;;;;;20.97;19.97;;;;;;;;;;5097341;28;20394;-84
2022/09/10 01:16:10;;;;;;;21.77;20.50;;;;;;;;;;5097337;28;20430;-84
2022/09/10 01:18:42;;;;;;;21.13;20.03;;;;;;;;;;5097454;28;20445;-84
2022/09/10 01:21:18;;;;;;;21.90;20.50;;;;;;;;;;5097146;28;20440;-84
2022/09/10 01:24:01;;;;;;;21.47;20.07;;;;;;;;;;5097034;28;20415;-84
2022/09/10 01:26:37;;;;;;;23.57;22.23;;;;;;;;;;5097882;28;20438;-84
2022/09/10 01:29:09;;;;;;;21.87;20.50;;;;;;;;;;5097220;28;20451;-84
2022/09/10 01:31:39;;;;;;;22.27;20.77;;;;;;;;;;5097013;28;20405;-84
2022/09/10 01:34:09;;;;;;;20.17;18.97;;;;;;;;;;5096794;28;20438;-84
2022/09/10 01:36:39;;;;;;;21.20;19.80;;;;;;;;;;5097219;28;20429;-84
2022/09/10 01:39:07;;;;;;;21.33;20.03;;;;;;;;;;5097073;28;20439;-84
2022/09/10 01:41:35;;;;;;;21.83;20.57;;;;;;;;;;5096476;28;20456;-84
2022/09/10 01:44:10;;;;;;;20.53;19.43;;;;;;;;;;5097269;28;20456;-84
2022/09/10 01:46:42;;;;;;;21.20;19.90;;;;;;;;;;5096652;28;20410;-84
2022/09/10 01:49:27;;;;;;;22.40;21.00;;;;;;;;;;5096454;28;20421;-84
2022/09/10 01:52:01;;;;;;;21.23;20.03;;;;;;;;;;5096408;28;20444;-84
2022/09/10 01:54:35;;;;;;;22.47;20.87;;;;;;;;;;5096255;28;20427;-84
2022/09/10 01:57:07;;;;;;;22.20;20.80;;;;;;;;;;5096425;28;20803;-84
2022/09/10 01:59:38;;;;;;;21.33;20.13;;;;;;;;;;5096416;28;20572;-84
2022/09/10 02:02:10;;;;;;;22.27;21.07;;;;;;;;;;5095551;28;20477;-84
2022/09/10 02:04:38;;;;;;;22.70;21.47;;;;;;;;;;5095759;28;20858;-83
2022/09/10 02:07:06;;;;;;;22.07;20.50;;;;;;;;;;5095751;28;20429;-84
2022/09/10 02:09:34;;;;;;;22.63;21.13;;;;;;;;;;5095476;28;20467;-83
2022/09/10 02:12:02;;;;;;;22.27;21.00;;;;;;;;;;5095174;28;20436;-84
2022/09/10 02:14:29;;;;;;;21.60;20.40;;;;;;;;;;5095560;28;20473;-84
2022/09/10 02:16:58;;;;;;;21.80;20.50;;;;;;;;;;5095391;28;20434;-84
2022/09/10 02:19:26;;;;;;;22.80;21.40;;;;;;;;;;5095499;28;20801;-83
2022/09/10 02:21:55;;;;;;;23.53;21.90;;;;;;;;;;5095422;28;20994;-84
2022/09/10 02:24:22;;;;;;;22.23;20.93;;;;;;;;;;5095352;28;20431;-83
2022/09/10 02:26:50;;;;;;;22.93;21.60;;;;;;;;;;5095251;28;20441;-84
2022/09/10 02:29:18;;;;;;;23.07;21.57;;;;;;;;;;5095227;28;20465;-84
2022/09/10 02:31:46;;;;;;;24.83;22.83;;;;;;;;;;5095253;28;20538;-84
2022/09/10 02:34:15;;;;;;;22.20;21.07;;;;;;;;;;5095573;28;20479;-83
2022/09/10 02:36:43;;;;;;;23.20;21.60;;;;;;;;;;5095177;28;20472;-84
2022/09/10 02:39:10;;;;;;;22.90;21.67;;;;;;;;;;5094816;28;20451;-84
2022/09/10 02:41:38;;;;;;;22.77;21.27;;;;;;;;;;5094518;28;20460;-84
2022/09/10 02:44:05;;;;;;;21.80;20.50;;;;;;;;;;5094990;28;20426;-84
2022/09/10 02:46:34;;;;;;;21.77;20.67;;;;;;;;;;5094708;28;20428;-84
2022/09/10 02:49:02;;;;;;;21.57;20.30;;;;;;;;;;5095201;28;20469;-83
2022/09/10 02:51:30;;;;;;;23.93;22.40;;;;;;;;;;5094322;28;20944;-84
2022/09/10 02:53:58;;;;;;;21.67;20.37;;;;;;;;;;5094542;28;20451;-84
2022/09/10 02:56:25;;;;;;;21.87;20.60;;;;;;;;;;5094824;28;20770;-83
2022/09/10 02:58:53;;;;;;;23.47;22.10;;;;;;;;;;5094052;28;20448;-84
2022/09/10 03:01:22;;;;;;;23.27;21.80;;;;;;;;;;5094099;28;20467;-84
2022/09/10 03:03:50;;;;;;;21.77;20.57;;;;;;;;;;5094660;28;20520;-84
2022/09/10 03:06:18;;;;;;;22.10;20.63;;;;;;;;;;5094747;28;20453;-84
2022/09/10 03:08:47;;;;;;;22.40;20.90;;;;;;;;;;5094618;28;20448;-84
2022/09/10 03:11:15;;;;;;;22.80;21.10;;;;;;;;;;5094096;28;20449;-84
2022/09/10 03:13:44;;;;;;;23.23;21.60;;;;;;;;;;5094240;28;20436;-84
2022/09/10 03:16:12;;;;;;;21.97;20.77;;;;;;;;;;5094665;28;20803;-83
2022/09/10 03:18:40;;;;;;;22.67;20.97;;;;;;;;;;5094661;28;20454;-84
2022/09/10 03:21:17;;;;;;;24.50;23.00;;;;;;;;;;5093445;28;20456;-84
2022/09/10 03:23:45;;;;;;;22.20;20.90;;;;;;;;;;5094374;28;20551;-83
2022/09/10 03:26:15;;;;;;;25.73;23.90;;;;;;;;;;5094439;28;20422;-84
2022/09/10 03:28:43;;;;;;;23.00;21.30;;;;;;;;;;5093988;28;20458;-83
2022/09/10 03:31:12;;;;;;;23.63;22.23;;;;;;;;;;5093915;28;20433;-84
2022/09/10 03:33:40;;;;;;;23.57;22.13;;;;;;;;;;5094392;28;20418;-84
2022/09/10 03:36:07;;;;;;;23.60;22.17;;;;;;;;;;5094149;28;20483;-83
2022/09/10 03:38:35;;;;;;;23.57;22.10;;;;;;;;;;5093885;28;20454;-84
2022/09/10 03:41:02;;;;;;;24.17;22.67;;;;;;;;;;5093430;28;20952;-84
2022/09/10 03:43:31;;;;;;;23.07;21.57;;;;;;;;;;5094268;28;20425;-84
2022/09/10 03:45:59;;;;;;;24.50;22.60;;;;;;;;;;5094004;28;20884;-84
2022/09/10 03:48:26;;;;;;;24.60;23.27;;;;;;;;;;5094062;28;20454;-84
2022/09/10 03:50:54;;;;;;;23.67;22.10;;;;;;;;;;5093718;28;20412;-84
2022/09/10 03:53:21;;;;;;;24.10;22.30;;;;;;;;;;5094317;28;20504;-83
2022/09/10 03:55:50;;;;;;;23.17;21.73;;;;;;;;;;5093687;28;20407;-83
2022/09/10 03:58:18;;;;;;;22.27;20.97;;;;;;;;;;5093554;28;20458;-84
2022/09/10 04:00:47;;;;;;;22.03;20.73;;;;;;;;;;5093714;28;20511;-83
2022/09/10 04:03:14;;;;;;;21.97;20.87;;;;;;;;;;5093358;28;20485;-84
2022/09/10 04:05:43;;;;;;;21.40;20.10;;;;;;;;;;5093951;28;20444;-84
2022/09/10 04:08:11;;;;;;;22.53;21.17;;;;;;;;;;5093841;28;20433;-84
2022/09/10 04:10:39;;;;;;;22.90;21.33;;;;;;;;;;5096020;28;20827;-83
2022/09/10 04:13:06;;;;;;;22.40;21.20;;;;;;;;;;5097440;28;20444;-84
2022/09/10 04:15:34;;;;;;;22.33;21.13;;;;;;;;;;5097861;28;20457;-83
2022/09/10 04:18:03;;;;;;;22.93;21.53;;;;;;;;;;5097470;28;20426;-85
2022/09/10 04:20:47;;;;;;;22.73;21.10;;;;;;;;;;5096482;28;20423;-84
2022/09/10 04:23:16;;;;;;;21.20;20.03;;;;;;;;;;5097442;28;20449;-83
2022/09/10 04:25:43;;;;;;;21.80;20.60;;;;;;;;;;5098036;28;20497;-84
2022/09/10 04:28:10;;;;;;;21.03;19.70;;;;;;;;;;5097759;28;20448;-84
2022/09/10 04:30:39;;;;;;;20.57;19.37;;;;;;;;;;5097926;28;20437;-83
2022/09/10 04:33:08;;;;;;;21.43;19.97;;;;;;;;;;5097269;28;20438;-83
2022/09/10 04:35:36;;;;;;;21.73;20.17;;;;;;;;;;5097736;28;20423;-84
2022/09/10 04:38:03;;;;;;;21.30;19.90;;;;;;;;;;5097513;28;20460;-84
2022/09/10 04:40:30;;;;;;;20.30;19.20;;;;;;;;;;5097107;28;20450;-84
2022/09/10 04:42:58;;;;;;;20.90;19.80;;;;;;;;;;5097389;28;20473;-84
2022/09/10 04:45:25;;;;;;;21.40;20.17;;;;;;;;;;5097522;28;20934;-84
2022/09/10 04:47:53;;;;;;;22.80;21.37;;;;;;;;;;5097591;28;20450;-84
2022/09/10 04:50:21;;;;;;;22.00;20.73;;;;;;;;;;5097385;28;20443;-84
2022/09/10 04:52:49;;;;;;;21.93;20.50;;;;;;;;;;5097071;28;20436;-84
2022/09/10 04:55:16;;;;;;;21.67;20.40;;;;;;;;;;5097531;28;20405;-85
2022/09/10 04:57:53;;;;;;;22.03;20.73;;;;;;;;;;5097188;28;20792;-83
2022/09/10 05:00:21;;;;;;;21.00;19.80;;;;;;;;;;5096745;28;20929;-84
2022/09/10 05:02:48;;;;;;;21.33;19.87;;;;;;;;;;5096972;28;20501;-84
2022/09/10 05:05:16;;;;;;;21.30;19.83;;;;;;;;;;5096245;28;20468;-84
2022/09/10 05:07:44;;;;;;;20.23;19.23;;;;;;;;;;5096616;28;20400;-80
2022/09/10 05:10:12;;;;;;;20.93;19.20;;;;;;;;;;5097298;28;20484;-80
2022/09/10 05:12:39;;;;;;;20.13;19.03;;;;;;;;;;5097151;28;20882;-80
2022/09/10 05:15:08;;;;;;;21.40;20.20;;;;;;;;;;5097227;28;20424;-79
2022/09/10 05:17:36;;;;;;;20.43;19.03;;;;;;;;;;5097712;28;20427;-80
2022/09/10 05:20:05;;;;;;;21.23;19.30;;;;;;;;;;5097632;28;20445;-79
2022/09/10 05:22:33;;;;;;;21.33;20.13;;;;;;;;;;5097030;28;20834;-80
2022/09/10 05:25:02;;;;;;;21.20;19.80;;;;;;;;;;5097176;28;20949;-79
2022/09/10 05:27:29;;;;;;;21.47;20.30;;;;;;;;;;5097449;28;20430;-79
2022/09/10 05:29:58;;;;;;;21.03;19.73;;;;;;;;;;5097417;28;20454;-80
2022/09/10 05:32:25;;;;;;;20.53;19.50;;;;;;;;;;5097140;28;20775;-79
2022/09/10 05:34:52;;;;;;;20.70;19.40;;;;;;;;;;5097178;28;20450;-86
2022/09/10 05:37:19;;;;;;;20.27;19.17;;;;;;;;;;5097205;28;20429;-84
2022/09/10 05:39:47;;;;;;;18.80;17.90;;;;;;;;;;5096436;28;20461;-77
2022/09/10 05:42:16;;;;;;;19.93;18.93;;;;;;;;;;5096206;28;20985;-78
2022/09/10 05:44:43;;;;;;;18.13;17.23;;;;;;;;;;5097155;28;20417;-78
2022/09/10 05:47:11;;;;;;;19.43;18.27;;;;;;;;;;5097123;28;20417;-77
2022/09/10 05:49:39;;;;;;;18.47;17.57;;;;;;;;;;5096692;28;20436;-77
2022/09/10 05:52:07;;;;;;;19.70;18.50;;;;;;;;;;5096599;28;20414;-78
2022/09/10 05:54:34;;;;;;;19.03;18.00;;;;;;;;;;5096166;28;20979;-76
2022/09/10 05:57:02;;;;;;;18.97;17.97;;;;;;;;;;5097181;28;20421;-78
2022/09/10 05:59:30;;;;;;;19.43;18.20;;;;;;;;;;5096765;28;20443;-78
2022/09/10 06:01:58;;;;;;;18.90;17.90;;;;;;;;;;5096506;28;20427;-78
2022/09/10 06:04:25;;;;;;;19.47;18.37;;;;;;;;;;5096663;28;20412;-77
2022/09/10 06:06:53;;;;;;;20.70;19.60;;;;;;;;;;5097254;28;20792;-78
2022/09/10 06:09:21;;;;;;;19.20;18.20;;;;;;;;;;5096888;28;20492;-77
2022/09/10 06:11:48;;;;;;;19.87;18.23;;;;;;;;;;5096575;28;20441;-78
2022/09/10 06:14:16;;;;;;;19.23;18.13;;;;;;;;;;5096980;28;20430;-78
2022/09/10 06:16:44;;;;;;;19.03;18.10;;;;;;;;;;5096852;28;20456;-78
2022/09/10 06:19:13;;;;;;;18.60;17.50;;;;;;;;;;5096830;28;20449;-78
2022/09/10 06:21:41;;;;;;;18.23;17.33;;;;;;;;;;5096037;28;20909;-78
2022/09/10 06:24:08;;;;;;;19.43;18.30;;;;;;;;;;5096283;28;20457;-78
2022/09/10 06:26:35;;;;;;;19.63;18.53;;;;;;;;;;5096565;28;20430;-78
2022/09/10 06:29:04;;;;;;;19.43;18.43;;;;;;;;;;5096963;28;20536;-78
2022/09/10 06:31:31;;;;;;;19.07;18.17;;;;;;;;;;5096143;28;20474;-77
2022/09/10 06:34:00;;;;;;;19.50;18.40;;;;;;;;;;5096150;28;20425;-78
2022/09/10 06:36:27;;;;;;;20.17;18.93;;;;;;;;;;5096097;28;20451;-78
2022/09/10 06:38:56;;;;;;;19.63;18.43;;;;;;;;;;5095569;28;20457;-78
2022/09/10 06:41:24;;;;;;;19.47;18.13;;;;;;;;;;5094246;28;20469;-86
2022/09/10 06:43:51;;;;;;;18.63;17.73;;;;;;;;;;5096396;28;20466;-87
2022/09/10 06:46:19;;;;;;;19.80;18.40;;;;;;;;;;5096177;28;20981;-78
2022/09/10 06:48:46;;;;;;;18.80;17.50;;;;;;;;;;5096265;28;20462;-78
2022/09/10 06:51:16;;;;;;;18.93;17.83;;;;;;;;;;5096103;28;20415;-78
2022/09/10 06:53:44;;;;;;;18.47;17.40;;;;;;;;;;5096231;28;20454;-78
2022/09/10 06:56:12;;;;;;;19.57;18.07;;;;;;;;;;5095996;28;20451;-78
2022/09/10 06:58:40;;;;;;;18.40;17.33;;;;;;;;;;5096366;28;20476;-79
2022/09/10 07:01:08;;;;;;;18.77;17.77;;;;;;;;;;5095831;28;20416;-78
2022/09/10 07:03:35;;;;;;;18.50;17.27;;;;;;;;;;5095654;28;20534;-78
2022/09/10 07:06:03;;;;;;;18.90;17.80;;;;;;;;;;5095797;28;20421;-79
2022/09/10 07:08:32;;;;;;;18.53;17.63;;;;;;;;;;5096458;28;20444;-77
2022/09/10 07:11:01;;;;;;;18.30;17.50;;;;;;;;;;5095182;28;20439;-78
2022/09/10 07:13:28;;;;;;;18.87;17.87;;;;;;;;;;5095974;28;20875;-79
2022/09/10 07:15:55;;;;;;;19.67;18.67;;;;;;;;;;5096403;28;20458;-77
2022/09/10 07:18:22;;;;;;;18.80;17.67;;;;;;;;;;5095931;28;20973;-79
2022/09/10 07:20:50;;;;;;;19.87;18.57;;;;;;;;;;5096516;28;20446;-78
2022/09/10 07:23:18;;;;;;;19.33;18.23;;;;;;;;;;5095656;28;20887;-78
2022/09/10 07:25:47;;;;;;;18.27;17.33;;;;;;;;;;5096330;28;20432;-78
2022/09/10 07:28:15;;;;;;;19.20;17.90;;;;;;;;;;5095297;28;20461;-78
2022/09/10 07:30:43;;;;;;;19.77;18.57;;;;;;;;;;5095351;28;20465;-79
2022/09/10 07:33:11;;;;;;;19.37;18.30;;;;;;;;;;5094890;28;20411;-77
2022/09/10 07:35:39;;;;;;;20.50;19.00;;;;;;;;;;5095438;28;20449;-78
2022/09/10 07:38:06;;;;;;;19.60;18.60;;;;;;;;;;5095309;28;20812;-80
2022/09/10 07:40:34;;;;;;;19.83;18.63;;;;;;;;;;5095144;28;20447;-78
2022/09/10 07:43:03;;;;;;;20.13;18.90;;;;;;;;;;5094637;28;20452;-79
2022/09/10 07:45:30;;;;;;;19.63;18.63;;;;;;;;;;5098494;28;20463;-78
2022/09/10 07:47:58;;;;;;;19.90;18.40;;;;;;;;;;5099080;28;20415;-78
2022/09/10 07:50:25;;;;;;;20.00;18.80;;;;;;;;;;5099292;28;20440;-77
2022/09/10 07:52:53;;;;;;;19.20;18.20;;;;;;;;;;5098475;28;20414;-78
2022/09/10 07:55:22;;;;;;;18.70;17.60;;;;;;;;;;5098967;28;20432;-77
2022/09/10 07:57:49;;;;;;;19.90;18.50;;;;;;;;;;5098400;28;20429;-78
2022/09/10 08:00:18;;;;;;;18.63;17.67;;;;;;;;;;5098803;28;20993;-78
2022/09/10 08:02:45;;;;;;;20.17;18.93;;;;;;;;;;5098742;28;20510;-78
2022/09/10 08:05:13;;;;;;;19.00;18.03;;;;;;;;;;5098501;28;20973;-77
2022/09/10 08:07:40;;;;;;;19.50;18.40;;;;;;;;;;5099038;28;20460;-78
2022/09/10 08:10:09;;;;;;;20.00;18.80;;;;;;;;;;5098727;28;20460;-77
2022/09/10 08:12:36;;;;;;;20.97;19.57;;;;;;;;;;5098821;28;20507;-77
2022/09/10 08:15:04;;;;;;;19.30;18.13;;;;;;;;;;5098496;28;20445;-78
2022/09/10 08:17:33;;;;;;;20.57;19.47;;;;;;;;;;5097844;28;20848;-78
2022/09/10 08:20:03;;;;;;;20.53;19.07;;;;;;;;;;5097873;28;20473;-77
2022/09/10 08:22:30;;;;;;;19.80;18.60;;;;;;;;;;5096677;28;20443;-78
2022/09/10 08:24:57;;;;;;;21.10;19.47;;;;;;;;;;5096718;28;20453;-78
2022/09/10 08:27:26;;;;;;;20.30;19.10;;;;;;;;;;5097505;28;20420;-78
2022/09/10 08:29:53;;;;;;;21.10;19.80;;;;;;;;;;5096856;28;20465;-78
2022/09/10 08:32:21;;;;;;;20.63;19.27;;;;;;;;;;5096858;28;20477;-77
2022/09/10 08:34:50;;;;;;;21.10;19.80;;;;;;;;;;5096945;28;20417;-77
2022/09/10 08:37:17;;;;;;;20.50;19.30;;;;;;;;;;5098732;28;20454;-77
2022/09/10 08:39:45;;;;;;;21.77;20.53;;;;;;;;;;5098490;28;20481;-77
2022/09/10 08:42:15;;;;;;;21.77;20.17;;;;;;;;;;5099606;28;20450;-79
2022/09/10 08:44:48;;;;;;;21.37;20.17;;;;;;;;;;5099079;28;20453;-78
2022/09/10 08:47:21;;;;;;;25.07;23.63;;;;;;;;;;5098764;28;20471;-79
2022/09/10 08:49:52;;;;;;;21.50;20.30;;;;;;;;;;5098131;28;20448;-78
2022/09/10 08:52:22;;;;;;;23.73;22.13;;;;;;;;;;5098305;28;20409;-78
2022/09/10 08:54:55;;;;;;;22.37;20.97;;;;;;;;;;5098708;28;20442;-79
2022/09/10 08:57:24;;;;;;;24.60;22.80;;;;;;;;;;5097337;28;20399;-79
2022/09/10 08:59:53;;;;;;;21.77;20.50;;;;;;;;;;5098562;28;20863;-79
2022/09/10 09:02:23;;;;;;;22.80;21.30;;;;;;;;;;5098098;28;20454;-78
2022/09/10 09:04:57;;;;;;;22.50;21.13;;;;;;;;;;5098716;28;20476;-79
2022/09/10 09:07:24;;;;;;;23.07;21.60;;;;;;;;;;5098749;28;20410;-79
2022/09/10 09:09:53;;;;;;;23.33;21.73;;;;;;;;;;5097408;28;20478;-78
2022/09/10 09:12:27;;;;;;;22.00;20.60;;;;;;;;;;5097645;28;21094;-79
2022/09/10 09:14:57;;;;;;;24.50;22.93;;;;;;;;;;5097956;28;20403;-79
2022/09/10 09:17:29;;;;;;;22.10;20.80;;;;;;;;;;5098312;28;20406;-79
2022/09/10 09:20:04;;;;;;;22.90;21.50;;;;;;;;;;5098081;28;20451;-78
2022/09/10 09:22:35;;;;;;;21.67;20.37;;;;;;;;;;5097819;28;20411;-79
2022/09/10 09:25:08;;;;;;;23.43;22.03;;;;;;;;;;5097490;28;20492;-78
2022/09/10 09:27:38;;;;;;;21.87;20.57;;;;;;;;;;5097405;28;20441;-77
2022/09/10 09:30:07;;;;;;;22.70;21.27;;;;;;;;;;5097640;28;20466;-78
2022/09/10 09:32:35;;;;;;;21.97;20.67;;;;;;;;;;5098512;28;20425;-80
2022/09/10 09:35:10;;;;;;;21.77;20.37;;;;;;;;;;5104067;28;20933;-79
2022/09/10 09:37:38;;;;;;;21.60;20.30;;;;;;;;;;5117890;28;20442;-79
2022/09/10 09:40:09;;;;;;;24.03;21.90;;;;;;;;;;5118999;28;20469;-79
2022/09/10 09:42:41;;;;;;;22.60;20.97;;;;;;;;;;5117585;28;20424;-78
2022/09/10 09:45:15;;;;;;;22.60;21.00;;;;;;;;;;5118391;28;20485;-78
2022/09/10 09:47:45;;;;;;;22.50;20.87;;;;;;;;;;5117315;27;20465;-79
2022/09/10 09:50:17;;;;;;;22.30;20.97;;;;;;;;;;5118980;28;20464;-78
2022/09/10 09:52:45;;;;;;;22.20;20.77;;;;;;;;;;5117473;28;20413;-78
2022/09/10 09:55:18;;;;;;;21.83;20.43;;;;;;;;;;5119920;28;20421;-79
2022/09/10 09:57:46;;;;;;;21.70;20.57;;;;;;;;;;5118991;28;20441;-78
2022/09/10 10:00:31;;;;;;;21.30;20.10;;;;;;;;;;5118448;28;20540;-79
2022/09/10 10:03:04;;;;;;;21.07;19.87;;;;;;;;;;5118439;28;20438;-85
2022/09/10 10:05:32;;;;;;;21.33;20.20;;;;;;;;;;5117650;28;20487;-79
2022/09/10 10:08:00;;;;;;;21.37;20.07;;;;;;;;;;5117853;28;20909;-79
2022/09/10 10:10:28;;;;;;;23.03;21.53;;;;;;;;;;5118555;28;20458;-79
2022/09/10 10:12:56;;;;;;;22.47;21.03;;;;;;;;;;5118185;28;20428;-79
2022/09/10 10:15:35;;;;;;;22.80;21.50;;;;;;;;;;5118156;28;20413;-79
2022/09/10 10:18:23;;;;;;;22.13;20.90;;;;;;;;;;5118115;28;20501;-79
2022/09/10 10:21:11;;;;;;;22.30;21.07;;;;;;;;;;5117219;28;20534;-78
2022/09/10 10:23:39;;;;;;;21.60;20.10;;;;;;;;;;5117480;28;20472;-78
2022/09/10 10:26:17;;;;;;;21.37;20.10;;;;;;;;;;5117482;28;20461;-78
2022/09/10 10:28:49;;;;;;;21.20;19.90;;;;;;;;;;5117277;28;20838;-78
2022/09/10 10:31:16;;;;;;;22.10;20.50;;;;;;;;;;5116514;28;20457;-79
2022/09/10 10:33:51;;;;;;;22.00;20.73;;;;;;;;;;5117621;28;20441;-78
2022/09/10 10:36:23;;;;;;;22.20;20.80;;;;;;;;;;5117092;28;20429;-79
2022/09/10 10:38:55;;;;;;;20.70;19.57;;;;;;;;;;5116905;28;20471;-78
2022/09/10 10:41:31;;;;;;;20.73;19.63;;;;;;;;;;5116518;28;20843;-78
2022/09/10 10:44:06;;;;;;;20.60;19.50;;;;;;;;;;5116603;28;20476;-78
2022/09/10 10:46:40;;;;;;;21.50;20.30;;;;;;;;;;5116483;28;20449;-78
2022/09/10 10:49:15;;;;;;;22.57;21.10;;;;;;;;;;5117796;28;20467;-78
2022/09/10 10:51:49;;;;;;;22.13;20.93;;;;;;;;;;5116441;28;20786;-89
2022/09/10 10:54:31;;;;;;;22.03;20.67;;;;;;;;;;5115926;27;20976;-78
2022/09/10 10:57:03;;;;;;;21.63;20.43;;;;;;;;;;5114266;28;20433;-79
2022/09/10 10:59:37;;;;;;;22.40;21.10;;;;;;;;;;5116637;28;20438;-79
2022/09/10 11:02:13;;;;;;;22.93;21.57;;;;;;;;;;5116549;28;20406;-78
2022/09/10 11:04:42;;;;;;;23.30;22.03;;;;;;;;;;5116264;28;20810;-78
2022/09/10 11:07:15;;;;;;;23.07;21.77;;;;;;;;;;5115913;28;20490;-78
2022/09/10 11:09:45;;;;;;;24.53;23.03;;;;;;;;;;5116260;28;20965;-79
2022/09/10 11:12:16;;;;;;;23.60;22.33;;;;;;;;;;5115990;28;20441;-77
2022/09/10 11:14:47;;;;;;;22.87;21.67;;;;;;;;;;5116335;28;20401;-77
2022/09/10 11:17:18;;;;;;;24.00;22.73;;;;;;;;;;5116654;28;20521;-79
2022/09/10 11:19:48;;;;;;;24.00;22.70;;;;;;;;;;5115340;27;20433;-79
2022/09/10 11:22:19;;;;;;;24.10;22.63;;;;;;;;;;5116015;28;20413;-78
2022/09/10 11:24:48;;;;;;;23.97;22.57;;;;;;;;;;5116134;28;20472;-79
2022/09/10 11:27:19;;;;;;;24.00;22.60;;;;;;;;;;5115686;28;20447;-77
2022/09/10 11:29:51;;;;;;;23.87;22.47;;;;;;;;;;5116139;28;20480;-78
2022/09/10 11:32:25;;;;;;;26.37;24.60;;;;;;;;;;5115627;27;20856;-87
2022/09/10 11:34:56;;;;;;;26.17;24.47;;;;;;;;;;5116515;28;20416;-78
2022/09/10 11:37:30;;;;;;;25.57;23.90;;;;;;;;;;5116510;28;20413;-78
2022/09/10 11:40:00;;;;;;;25.60;23.87;;;;;;;;;;5115931;28;20459;-78
2022/09/10 11:42:32;;;;;;;26.00;24.20;;;;;;;;;;5116474;28;20452;-78
2022/09/10 11:45:01;;;;;;;26.30;24.60;;;;;;;;;;5115779;28;20450;-78
2022/09/10 11:47:32;;;;;;;27.83;26.10;;;;;;;;;;5116447;28;20421;-78
2022/09/10 11:50:02;;;;;;;30.70;28.40;;;;;;;;;;5116539;28;20478;-79
2022/09/10 11:52:32;;;;;;;28.57;26.40;;;;;;;;;;5116393;28;20446;-78
2022/09/10 11:55:00;;;;;;;27.60;25.57;;;;;;;;;;5115483;28;20426;-78
2022/09/10 11:57:33;;;;;;;30.23;27.60;;;;;;;;;;5115989;28;20428;-78
2022/09/10 12:00:07;;;;;;;28.20;26.40;;;;;;;;;;5116075;28;20462;-78
2022/09/10 12:02:49;;;;;;;25.60;24.03;;;;;;;;;;5114745;28;20465;-78
2022/09/10 12:05:22;;;;;;;27.43;25.63;;;;;;;;;;5115553;28;20456;-78
2022/09/10 12:07:55;;;;;;;28.60;26.63;;;;;;;;;;5115659;28;20431;-78
2022/09/10 12:10:30;;;;;;;26.87;25.07;;;;;;;;;;5115844;28;20816;-78
2022/09/10 12:12:58;;;;;;;26.97;25.27;;;;;;;;;;5114689;27;20489;-78
2022/09/10 12:15:26;;;;;;;28.33;26.53;;;;;;;;;;5115434;28;20438;-78
2022/09/10 12:17:56;;;;;;;29.63;26.90;;;;;;;;;;5115772;28;20449;-78
2022/09/10 12:20:29;;;;;;;28.37;26.20;;;;;;;;;;5116160;28;20447;-78
2022/09/10 12:22:58;;;;;;;26.97;25.10;;;;;;;;;;5115711;28;20453;-76
2022/09/10 12:25:27;;;;;;;26.10;24.40;;;;;;;;;;5114956;28;20498;-78
2022/09/10 12:27:57;;;;;;;27.53;25.77;;;;;;;;;;5115440;28;20459;-78
2022/09/10 12:30:42;;;;;;;27.60;25.83;;;;;;;;;;5115061;28;20988;-78
2022/09/10 12:33:25;;;;;;;28.07;25.50;;;;;;;;;;5118322;28;20445;-81
2022/09/10 12:35:53;;;;;;;26.53;24.73;;;;;;;;;;5118454;28;20520;-80
2022/09/10 12:38:39;;;;;;;24.90;23.30;;;;;;;;;;5118784;28;20466;-78
2022/09/10 12:41:13;;;;;;;25.87;24.27;;;;;;;;;;5118389;28;20429;-80
2022/09/10 12:43:54;;;;;;;26.00;24.27;;;;;;;;;;5118185;28;20480;-79
2022/09/10 12:46:24;;;;;;;25.40;23.70;;;;;;;;;;5118183;28;20473;-81
2022/09/10 12:49:04;;;;;;;23.77;22.27;;;;;;;;;;5118958;28;20450;-79
2022/09/10 12:51:36;;;;;;;23.83;22.17;;;;;;;;;;5118172;28;20427;-78
2022/09/10 12:54:11;;;;;;;24.47;23.07;;;;;;;;;;5119028;28;20455;-78
2022/09/10 12:56:59;;;;;;;25.63;24.03;;;;;;;;;;5119085;28;20913;-78
2022/09/10 12:59:43;;;;;;;24.60;22.87;;;;;;;;;;5118534;28;20474;-78
2022/09/10 13:02:21;;;;;;;24.70;23.20;;;;;;;;;;5118390;27;20472;-78
2022/09/10 13:04:54;;;;;;;24.50;23.00;;;;;;;;;;5117913;28;20439;-78
2022/09/10 13:07:24;;;;;;;26.70;25.10;;;;;;;;;;5118175;28;20879;-78
2022/09/10 13:09:58;;;;;;;24.97;23.43;;;;;;;;;;5117947;28;20476;-78
2022/09/10 13:12:26;;;;;;;24.60;22.90;;;;;;;;;;5117900;28;20759;-78
2022/09/10 13:15:00;;;;;;;24.20;22.70;;;;;;;;;;5117517;28;20422;-79
2022/09/10 13:17:38;;;;;;;25.80;24.00;;;;;;;;;;5118146;28;20469;-79
2022/09/10 13:20:29;;;;;;;40.70;38.47;;;;;;;;;;5117702;28;20444;-78
2022/09/10 13:22:57;;;;;;;192.03;185.17;;;;;;;;;;5117347;28;20535;-78
2022/09/10 13:25:26;;;;;;;24.90;23.40;;;;;;;;;;5117737;28;20460;-77
2022/09/10 13:27:55;;;;;;;26.47;24.37;;;;;;;;;;5117547;28;20410;-79
2022/09/10 13:30:24;;;;;;;25.57;24.00;;;;;;;;;;5117402;28;20502;-78
2022/09/10 13:32:54;;;;;;;28.50;26.37;;;;;;;;;;5116807;28;20453;-78
2022/09/10 13:35:40;;;;;;;26.50;24.90;;;;;;;;;;5117468;28;20455;-78
2022/09/10 13:38:23;;;;;;;26.13;24.33;;;;;;;;;;5117450;28;20537;-78
2022/09/10 13:41:05;;;;;;;26.23;24.43;;;;;;;;;;5117452;28;20795;-79
2022/09/10 13:43:48;;;;;;;26.83;24.97;;;;;;;;;;5104001;28;20457;-78
2022/09/10 13:46:22;;;;;;;26.50;24.80;;;;;;;;;;5117002;28;20565;-77
2022/09/10 13:48:52;;;;;;;24.80;23.30;;;;;;;;;;5117152;28;20462;-78
2022/09/10 13:51:26;;;;;;;26.20;24.50;;;;;;;;;;5116788;28;20933;-78
2022/09/10 13:53:55;;;;;;;25.20;23.40;;;;;;;;;;5116682;28;20466;-79
2022/09/10 13:56:24;;;;;;;24.90;23.33;;;;;;;;;;5117288;28;20472;-78
2022/09/10 13:58:52;;;;;;;26.57;24.70;;;;;;;;;;5117714;28;20474;-78
2022/09/10 14:01:36;;;;;;;26.73;24.83;;;;;;;;;;5116587;28;20450;-78
2022/09/10 14:04:21;;;;;;;26.90;25.27;;;;;;;;;;5116350;28;20405;-78
2022/09/10 14:06:49;;;;;;;26.67;24.70;;;;;;;;;;5116592;28;20402;-78
2022/09/10 14:09:16;;;;;;;25.87;24.03;;;;;;;;;;5117207;28;20899;-78
2022/09/10 14:11:43;;;;;;;468.63;439.83;;;;;;;;;;5116233;28;20461;-78
2022/09/10 14:14:12;;;;;;;520.23;487.63;;;;;;;;;;5116735;28;20487;-77
2022/09/10 14:16:42;;;;;;;221.97;213.97;;;;;;;;;;5117173;28;20420;-78
2022/09/10 14:19:14;;;;;;;490.87;460.80;;;;;;;;;;5118004;28;20444;-79
2022/09/10 14:21:42;;;;;;;354.57;340.27;;;;;;;;;;5116997;28;20412;-78
2022/09/10 14:24:26;;;;;;;149.40;143.83;;;;;;;;;;5117234;28;20453;-78
2022/09/10 14:27:05;;;;;;;25.47;23.80;;;;;;;;;;5116628;28;20760;-78
2022/09/10 14:29:32;;;;;;;419.07;401.90;;;;;;;;;;5116820;28;20451;-78
2022/09/10 14:32:15;;;;;;;362.50;347.57;;;;;;;;;;5115662;28;20447;-78
2022/09/10 14:34:43;;;;;;;321.10;308.13;;;;;;;;;;5115294;28;20444;-78